• Join FlightAware (Why Join?)
  • Login
  • US Flag 
Rudolph Flight #1: Arrived! 
06:04PM EST


 

Airport Tracker/Info


-or-


 

Live Flight TrackerFlight Track Log ✈ JIA2355 ✈ 13-Jul-2013 ✈ KCLT - KTRI

Flight Track Log - Related Links

Times and Time Zones

All times are in EDT time to prevent confusion due to time zone crossing. See the JIA2355 flight status page for this flight to view local times or setup timezone preferences in your user account.

Time Position Orientation Groundspeed Altitude Reporting Facility
EDT Latitude Longitude Course Direction KTS MPH feet Rate Location/Type
11:49AM 35.2289 -80.9572 52° Northeast 170 196 1,400  Level Atlanta Center
11:50AM 35.2692 -80.9836 332° Northwest 200 230 2,900 1,800 Climbing Atlanta Center
11:51AM 35.0981 -81.1590 287° West  Level FlightAware Approximate
11:51AM 35.3303 -81.0017 346° North 256 295 4,900  Level Atlanta Center
11:52AM 35.1579 -81.2167 North  Level FlightAware Approximate
11:52AM 35.4133 -80.9858 North 292 336 7,600  Level Atlanta Center
11:53AM 35.2545 -81.2167 North  Level FlightAware Approximate
11:53AM 35.5083 -80.9542 15° North 297 342 10,400  Level Atlanta Center
11:54AM 35.3081 -81.1278 52° Northeast  Level FlightAware Approximate
11:54AM 35.5911 -80.9256 16° North 297 342 12,500  Level Atlanta Center
11:55AM 35.6781 -80.8967 15° North 308 354 14,300 1,680 Climbing Atlanta Center
11:56AM 35.7714 -80.8803 North 324 373 15,900 1,500 Climbing Atlanta Center
11:57AM 35.8672 -80.8689 North 339 390 17,400 1,020 Climbing Atlanta Center
11:58AM 35.9692 -80.8572 North 356 410 18,000 180 Climbing Atlanta Center
11:59AM 36.0544 -80.9336 324° Northwest 362 417 17,800 -780 Descending Atlanta Center
12:00PM 36.0908 -81.0503 291° West 340 391 16,500 -1,260 Descending Atlanta Center
12:01PM 36.1203 -81.1547 289° West 323 372 15,300 -1,200 Descending Atlanta Center
12:02PM 36.1500 -81.2617 289° West 323 372 14,100 -660 Descending Atlanta Center
12:03PM 36.1792 -81.3583 291° West 333 383 14,000 -60 Descending Atlanta Center
12:04PM 36.2108 -81.4681 290° West 338 389 14,000  Level Atlanta Center
12:05PM 36.2422 -81.5778 290° West 343 395 14,000 -480 Level Atlanta Center
12:06PM 36.2733 -81.6847 290° West 343 395 13,100 -1,260 Descending Atlanta Center
12:07PM 36.3025 -81.7897 289° West 338 389 11,500 -1,080 Descending Atlanta Center
12:08PM 36.3314 -81.8867 290° West 317 365 11,000 -600 Descending Atlanta Center
12:09PM 36.3561 -81.9867 287° West 305 351 10,300 -1,140 Descending Atlanta Center
12:10PM 36.3828 -82.0839 289° West 305 351 8,800 -1,560 Descending Atlanta Center
12:11PM 36.3883 -82.1819 274° West 294 338 7,200 -1,560 Descending Atlanta Center
12:12PM 36.3878 -82.2825 270° West 288 331 5,700 -1,500 Descending Atlanta Center